Time;durP1;ratioP1;P1;durP2;ratioP2;P2;SDS_P1;SDS_P2;PMS_P1;PMS_P2;Temp;Humidity;BMP_temperature;BMP_pressure;BME280_temperature;BME280_humidity;BME280_pressure;Samples;Min_cycle;Max_cycle;Signal;HPM_P1;HPM_P2
2021/07/18 00:01:24;;;;;;;14.00;6.88;;;16.40;99.90;;;;;;4874145;29;20112;-82
2021/07/18 00:03:50;;;;;;;14.00;6.68;;;16.40;99.90;;;;;;4888184;29;20040;-83
2021/07/18 00:06:16;;;;;;;12.35;6.22;;;16.30;99.90;;;;;;4850871;29;20542;-82
2021/07/18 00:08:42;;;;;;;8.85;5.15;;;16.30;99.90;;;;;;4872894;29;20097;-79
2021/07/18 00:11:08;;;;;;;16.58;7.28;;;16.20;99.90;;;;;;4891715;29;20112;-78
2021/07/18 00:13:34;;;;;;;11.02;6.45;;;16.20;99.90;;;;;;4870245;29;20566;-79
2021/07/18 00:16:00;;;;;;;12.52;6.60;;;16.10;99.90;;;;;;4901411;29;20439;-78
2021/07/18 00:18:29;;;;;;;10.77;6.45;;;16.10;99.90;;;;;;4856916;29;20048;-79
2021/07/18 00:21:00;;;;;;;14.00;7.45;;;16.10;99.90;;;;;;4814677;29;20058;-79
2021/07/18 00:23:26;;;;;;;12.15;6.85;;;16.10;99.90;;;;;;4812911;29;20190;-79
2021/07/18 00:25:52;;;;;;;10.00;5.85;;;16.00;99.90;;;;;;4828269;29;20057;-82
2021/07/18 00:28:17;;;;;;;15.00;7.75;;;16.00;99.90;;;;;;4812008;29;20561;-81
2021/07/18 00:30:44;;;;;;;14.80;7.55;;;16.00;99.90;;;;;;4814251;29;20049;-82
2021/07/18 00:33:10;;;;;;;13.52;7.43;;;16.00;99.90;;;;;;4828641;29;20552;-81
2021/07/18 00:35:35;;;;;;;13.43;7.28;;;16.00;99.90;;;;;;4825990;29;20137;-81
2021/07/18 00:38:02;;;;;;;12.20;7.15;;;16.00;99.90;;;;;;4845640;29;20053;-80
2021/07/18 00:40:33;;;;;;;12.07;7.13;;;16.00;99.90;;;;;;4840864;29;20144;-81
2021/07/18 00:42:59;;;;;;;9.80;6.55;;;16.00;99.90;;;;;;4846155;29;20408;-81
2021/07/18 00:45:25;;;;;;;10.48;6.97;;;16.00;99.90;;;;;;4809183;29;20060;-80
2021/07/18 00:47:52;;;;;;;13.05;6.95;;;16.00;99.90;;;;;;4828501;29;20045;-80
2021/07/18 00:50:18;;;;;;;14.48;8.65;;;16.00;99.90;;;;;;4843410;29;20061;-80
2021/07/18 00:52:44;;;;;;;12.23;7.20;;;15.90;99.90;;;;;;4844953;29;20108;-80
2021/07/18 00:55:14;;;;;;;9.63;6.95;;;16.00;99.90;;;;;;4901399;29;20458;-80
2021/07/18 00:57:44;;;;;;;10.40;7.03;;;16.00;99.90;;;;;;4868036;29;20137;-80
2021/07/18 01:00:14;;;;;;;12.23;7.00;;;15.90;99.90;;;;;;4900711;29;20419;-80
2021/07/18 01:02:40;;;;;;;15.95;7.28;;;16.00;99.90;;;;;;4884196;29;20509;-80
2021/07/18 01:05:10;;;;;;;12.13;7.97;;;16.00;99.90;;;;;;4884869;29;20127;-79
2021/07/18 01:07:36;;;;;;;13.75;6.90;;;16.00;99.90;;;;;;4898603;29;20464;-79
2021/07/18 01:10:04;;;;;;;15.07;7.95;;;16.00;99.90;;;;;;4884101;29;20051;-80
2021/07/18 01:12:31;;;;;;;20.23;9.18;;;16.00;99.90;;;;;;4889937;29;20040;-81
2021/07/18 01:14:56;;;;;;;19.00;10.40;;;16.00;99.90;;;;;;4880724;29;20054;-80
2021/07/18 01:17:23;;;;;;;14.05;9.30;;;16.00;99.90;;;;;;4886219;29;20415;-80
2021/07/18 01:19:48;;;;;;;13.60;8.73;;;16.00;99.90;;;;;;4869395;29;20048;-80
2021/07/18 01:22:15;;;;;;;16.65;8.65;;;15.90;99.90;;;;;;4869786;29;20072;-80
2021/07/18 01:24:41;;;;;;;22.38;9.77;;;15.90;99.90;;;;;;4897035;29;20333;-80
2021/07/18 01:27:07;;;;;;;18.25;8.45;;;15.80;99.90;;;;;;4870828;29;20051;-80
2021/07/18 01:29:34;;;;;;;15.18;9.15;;;15.80;99.90;;;;;;4887425;29;20487;-81
2021/07/18 01:32:03;;;;;;;21.67;10.00;;;15.80;99.90;;;;;;4850645;29;20040;-81
2021/07/18 01:34:32;;;;;;;13.50;7.30;;;15.70;99.90;;;;;;4884983;29;20092;-81
2021/07/18 01:36:58;;;;;;;14.87;8.87;;;15.80;99.90;;;;;;4886114;29;20550;-81
2021/07/18 01:39:25;;;;;;;19.73;9.82;;;15.70;99.90;;;;;;4876683;29;20075;-81
2021/07/18 01:41:54;;;;;;;12.38;7.97;;;15.70;99.90;;;;;;4880946;29;20055;-82
2021/07/18 01:44:20;;;;;;;10.43;8.03;;;15.70;99.90;;;;;;4904296;29;20102;-81
2021/07/18 01:46:46;;;;;;;11.73;8.02;;;15.70;99.90;;;;;;4883349;29;21003;-83
2021/07/18 01:49:12;;;;;;;11.65;7.75;;;15.60;99.90;;;;;;4883278;29;20047;-83
2021/07/18 01:51:41;;;;;;;16.95;9.50;;;15.60;99.90;;;;;;4870628;29;20396;-83
2021/07/18 01:54:10;;;;;;;12.73;8.02;;;15.60;99.90;;;;;;4885508;29;20052;-82
2021/07/18 01:56:37;;;;;;;23.50;10.68;;;15.60;99.90;;;;;;4900616;29;20040;-83
2021/07/18 01:59:03;;;;;;;14.10;8.98;;;15.60;99.90;;;;;;4868152;29;20088;-83
2021/07/18 02:01:32;;;;;;;22.27;11.68;;;15.60;99.90;;;;;;4882762;29;20446;-82
2021/07/18 02:03:59;;;;;;;15.47;11.00;;;15.60;99.90;;;;;;4882475;29;20311;-83
2021/07/18 02:06:26;;;;;;;17.38;10.02;;;15.70;99.90;;;;;;4884486;29;21406;-83
2021/07/18 02:08:56;;;;;;;15.20;10.20;;;15.60;99.90;;;;;;4908616;29;20377;-83
2021/07/18 02:11:23;;;;;;;;;;;15.60;99.90;;;;;;4894481;29;20055;-83
2021/07/18 02:13:52;;;;;;;31.20;11.95;;;15.60;99.90;;;;;;4887006;29;19929;-83
2021/07/18 02:16:19;;;;;;;13.32;10.60;;;15.60;99.90;;;;;;4892917;29;20044;-83
2021/07/18 02:18:46;;;;;;;25.23;12.82;;;15.60;99.90;;;;;;4909206;29;20123;-83
2021/07/18 02:21:13;;;;;;;15.82;10.50;;;15.50;99.90;;;;;;4893644;29;20036;-82
2021/07/18 02:23:39;;;;;;;16.10;11.35;;;15.50;99.90;;;;;;4891458;29;20040;-82
2021/07/18 02:26:05;;;;;;;11.10;9.23;;;15.50;99.90;;;;;;4856089;29;20137;-82
2021/07/18 02:28:31;;;;;;;12.60;10.55;;;15.40;99.90;;;;;;4909172;29;20127;-83
2021/07/18 02:31:04;;;;;;;13.82;11.05;;;15.40;99.90;;;;;;4893287;29;20418;-82
2021/07/18 02:33:31;;;;;;;15.88;10.63;;;15.40;99.90;;;;;;4902944;29;20095;-81
2021/07/18 02:36:01;;;;;;;56.17;11.90;;;15.40;99.90;;;;;;4878201;29;20067;-81
2021/07/18 02:38:27;;;;;;;16.50;10.52;;;15.40;99.90;;;;;;4909393;29;20537;-81
2021/07/18 02:40:54;;;;;;;19.08;10.95;;;15.40;99.90;;;;;;4888395;29;20051;-80
2021/07/18 02:43:21;;;;;;;10.63;9.43;;;15.40;99.90;;;;;;4892937;29;20380;-81
2021/07/18 02:45:50;;;;;;;10.90;9.25;;;15.40;99.90;;;;;;4910468;29;20169;-80
2021/07/18 02:48:15;;;;;;;10.13;8.70;;;15.40;99.90;;;;;;4892008;29;20099;-81
2021/07/18 02:50:41;;;;;;;9.77;8.77;;;15.40;99.90;;;;;;4857200;29;20123;-81
2021/07/18 02:53:07;;;;;;;23.45;9.70;;;15.40;99.90;;;;;;4877417;29;20040;-81
2021/07/18 02:55:33;;;;;;;20.35;9.23;;;15.50;99.90;;;;;;4874493;29;20044;-81
2021/07/18 02:57:59;;;;;;;35.55;8.75;;;15.50;99.90;;;;;;4873773;29;20151;-80
2021/07/18 03:00:26;;;;;;;10.23;7.68;;;15.40;99.90;;;;;;4877327;29;20467;-79
2021/07/18 03:02:52;;;;;;;12.80;9.30;;;15.40;99.90;;;;;;4892672;29;20087;-79
2021/07/18 03:05:19;;;;;;;82.93;14.50;;;15.40;99.90;;;;;;4907114;29;20054;-79
2021/07/18 03:07:46;;;;;;;28.70;12.05;;;15.40;99.90;;;;;;4887589;29;20044;-80
2021/07/18 03:10:16;;;;;;;25.23;11.30;;;15.30;99.90;;;;;;4891568;29;20044;-79
2021/07/18 03:12:41;;;;;;;15.23;11.30;;;15.30;99.90;;;;;;4892789;29;20051;-79
2021/07/18 03:15:11;;;;;;;50.28;12.63;;;15.30;99.90;;;;;;4891184;29;20048;-79
2021/07/18 03:17:37;;;;;;;12.07;9.03;;;15.30;99.90;;;;;;4910133;29;20067;-79
2021/07/18 03:20:06;;;;;;;30.23;12.10;;;15.30;99.90;;;;;;4874491;29;20046;-79
2021/07/18 03:22:32;;;;;;;16.00;9.82;;;15.30;99.90;;;;;;4895299;29;20075;-79
2021/07/18 03:24:59;;;;;;;22.75;12.60;;;15.20;99.90;;;;;;4906440;29;20604;-79
2021/07/18 03:27:26;;;;;;;13.48;8.63;;;15.30;99.90;;;;;;4878912;29;20055;-79
2021/07/18 03:29:52;;;;;;;13.68;10.07;;;15.20;99.90;;;;;;4880206;29;20048;-79
2021/07/18 03:32:18;;;;;;;18.92;11.40;;;15.20;99.90;;;;;;4908204;29;20055;-80
2021/07/18 03:34:44;;;;;;;26.75;12.85;;;15.30;99.90;;;;;;4876403;29;20139;-80
2021/07/18 03:37:10;;;;;;;12.85;9.05;;;15.30;99.90;;;;;;4878868;29;20187;-81
2021/07/18 03:39:36;;;;;;;36.65;12.93;;;15.30;99.90;;;;;;4894587;29;20055;-81
2021/07/18 03:42:02;;;;;;;49.60;13.18;;;15.30;99.90;;;;;;4862833;29;20092;-82
2021/07/18 03:44:28;;;;;;;14.93;10.52;;;15.20;99.90;;;;;;4900135;29;20075;-81
2021/07/18 03:46:54;;;;;;;17.38;10.45;;;15.20;99.90;;;;;;4861293;29;20044;-82
2021/07/18 03:49:20;;;;;;;47.53;12.88;;;15.20;99.90;;;;;;4874317;29;20441;-82
2021/07/18 03:51:46;;;;;;;43.80;12.00;;;15.20;99.90;;;;;;4893244;29;20455;-82
2021/07/18 03:54:12;;;;;;;80.28;14.50;;;15.20;99.90;;;;;;4908651;29;20055;-81
2021/07/18 03:56:40;;;;;;;48.63;13.60;;;15.20;99.90;;;;;;4893047;29;20496;-82
2021/07/18 03:59:07;;;;;;;15.48;11.55;;;15.20;99.90;;;;;;4897062;29;20436;-82
2021/07/18 04:01:32;;;;;;;67.18;19.52;;;15.20;99.90;;;;;;4888577;29;20039;-82
2021/07/18 04:03:59;;;;;;;12.90;10.02;;;15.20;99.90;;;;;;4889535;29;20044;-82
2021/07/18 04:06:25;;;;;;;46.95;17.65;;;15.30;99.90;;;;;;4877820;29;20073;-82
2021/07/18 04:08:51;;;;;;;83.43;20.17;;;15.30;99.90;;;;;;4892957;29;20122;-82
2021/07/18 04:11:17;;;;;;;69.85;18.77;;;15.30;99.90;;;;;;4890772;29;20044;-82
2021/07/18 04:13:43;;;;;;;34.65;14.82;;;15.40;99.90;;;;;;4873704;29;20051;-82
2021/07/18 04:16:09;;;;;;;22.00;11.23;;;15.30;99.90;;;;;;4891541;29;20047;-82
2021/07/18 04:18:35;;;;;;;44.80;13.48;;;15.40;99.90;;;;;;4861893;29;20479;-81
2021/07/18 04:21:02;;;;;;;21.92;11.35;;;15.40;99.90;;;;;;4846475;29;20392;-82
2021/07/18 04:23:28;;;;;;;14.57;10.00;;;15.40;99.90;;;;;;4889301;29;20047;-81
2021/07/18 04:25:54;;;;;;;70.30;12.40;;;15.30;99.90;;;;;;4873951;29;20052;-81
2021/07/18 04:28:26;;;;;;;10.73;8.80;;;15.30;99.90;;;;;;4895166;29;20107;-82
2021/07/18 04:30:52;;;;;;;62.88;12.93;;;15.30;99.90;;;;;;4893392;29;20087;-82
2021/07/18 04:33:18;;;;;;;98.60;15.82;;;15.40;99.90;;;;;;4891000;29;20583;-83
2021/07/18 04:35:44;;;;;;;24.55;11.43;;;15.40;99.90;;;;;;4906755;29;20502;-83
2021/07/18 04:38:10;;;;;;;27.67;13.77;;;15.40;99.90;;;;;;4863069;29;20044;-82
2021/07/18 04:40:36;;;;;;;17.30;11.85;;;15.40;99.90;;;;;;4886706;29;20051;-82
2021/07/18 04:43:03;;;;;;;22.88;12.55;;;15.40;99.90;;;;;;4863782;29;20052;-82
2021/07/18 04:45:30;;;;;;;28.63;14.98;;;15.40;99.90;;;;;;4892685;29;20040;-82
2021/07/18 04:47:58;;;;;;;22.77;12.77;;;15.50;99.90;;;;;;4893070;29;20094;-83
2021/07/18 04:50:26;;;;;;;15.60;11.43;;;15.50;99.90;;;;;;4862454;29;20044;-83
2021/07/18 04:52:52;;;;;;;14.05;11.20;;;15.60;99.90;;;;;;4875380;29;20127;-82
2021/07/18 04:55:19;;;;;;;17.17;11.10;;;15.60;99.90;;;;;;4908613;29;20142;-83
2021/07/18 04:57:46;;;;;;;26.65;14.00;;;15.70;99.90;;;;;;4875115;29;20047;-83
2021/07/18 05:00:18;;;;;;;24.48;15.38;;;15.70;99.90;;;;;;4859627;29;20060;-82
2021/07/18 05:02:44;;;;;;;27.90;16.73;;;15.70;99.90;;;;;;4890787;29;20462;-82
2021/07/18 05:05:12;;;;;;;43.15;18.83;;;15.80;99.90;;;;;;4874354;29;20056;-82
2021/07/18 05:07:49;;;;;;;28.30;16.65;;;15.80;99.90;;;;;;4894918;29;20122;-83
2021/07/18 05:10:17;;;;;;;49.58;19.25;;;15.90;99.90;;;;;;4892217;29;20047;-81
2021/07/18 05:12:51;;;;;;;40.45;18.58;;;15.90;99.90;;;;;;4906743;29;20038;-81
2021/07/18 05:15:18;;;;;;;45.00;20.05;;;16.00;99.90;;;;;;4876123;29;20059;-80
2021/07/18 05:17:44;;;;;;;27.95;16.38;;;16.10;99.90;;;;;;4909648;29;20427;-80
2021/07/18 05:20:11;;;;;;;17.23;12.52;;;16.10;99.90;;;;;;4871660;29;20044;-80
2021/07/18 05:22:37;;;;;;;30.23;17.05;;;16.20;99.90;;;;;;4863291;29;20147;-79
2021/07/18 05:25:05;;;;;;;20.08;13.90;;;16.20;99.90;;;;;;4889261;29;20155;-80
2021/07/18 05:27:32;;;;;;;27.15;14.88;;;16.30;99.90;;;;;;4877702;29;20098;-81
2021/07/18 05:29:57;;;;;;;16.85;12.57;;;16.40;99.90;;;;;;4911743;29;20075;-82
2021/07/18 05:32:23;;;;;;;33.75;18.95;;;16.40;99.90;;;;;;4890090;29;20135;-81
2021/07/18 05:34:50;;;;;;;21.58;13.65;;;16.50;99.90;;;;;;4898437;29;20115;-82
2021/07/18 05:37:16;;;;;;;26.77;15.25;;;16.60;99.90;;;;;;4872544;29;20047;-84
2021/07/18 05:39:44;;;;;;;17.45;12.57;;;16.70;99.90;;;;;;4875919;29;20500;-83
2021/07/18 05:42:17;;;;;;;21.55;13.90;;;16.80;99.90;;;;;;4861229;29;20130;-83
2021/07/18 05:44:46;;;;;;;20.27;13.68;;;16.90;99.90;;;;;;4888404;29;20123;-81
2021/07/18 05:47:12;;;;;;;25.65;14.98;;;17.00;99.90;;;;;;4873656;29;20051;-81
2021/07/18 05:49:38;;;;;;;24.75;15.52;;;17.00;99.90;;;;;;4870760;29;20040;-81
2021/07/18 05:52:05;;;;;;;16.58;9.80;;;17.10;99.90;;;;;;4888518;29;20036;-78
2021/07/18 05:54:31;;;;;;;20.27;12.75;;;17.20;99.90;;;;;;4891198;29;20036;-80
2021/07/18 05:56:57;;;;;;;18.40;12.77;;;17.30;99.90;;;;;;4892889;29;20488;-79
2021/07/18 05:59:23;;;;;;;25.33;14.45;;;17.40;99.90;;;;;;4873305;29;20491;-79
2021/07/18 06:01:49;;;;;;;19.42;12.43;;;17.40;99.90;;;;;;4872943;29;20095;-79
2021/07/18 06:04:16;;;;;;;18.50;11.73;;;17.50;99.90;;;;;;4873415;29;20056;-79
2021/07/18 06:06:42;;;;;;;15.25;9.80;;;17.60;99.90;;;;;;4858418;29;20791;-79
2021/07/18 06:09:09;;;;;;;18.88;13.02;;;17.70;99.90;;;;;;4871779;29;20054;-80
2021/07/18 06:11:35;;;;;;;18.20;11.95;;;17.70;99.90;;;;;;4890908;29;20055;-81
2021/07/18 06:14:01;;;;;;;19.65;11.13;;;17.80;99.90;;;;;;4858038;29;20039;-81
2021/07/18 06:16:27;;;;;;;18.42;12.45;;;17.90;99.90;;;;;;4862633;29;20052;-82
2021/07/18 06:18:54;;;;;;;15.52;11.30;;;17.90;99.90;;;;;;4874845;29;20099;-83
2021/07/18 06:21:20;;;;;;;17.33;11.80;;;18.00;99.90;;;;;;4882417;29;20040;-82
2021/07/18 06:23:46;;;;;;;16.83;10.95;;;18.10;99.90;;;;;;4886026;29;20096;-80
2021/07/18 06:26:14;;;;;;;13.27;10.18;;;18.20;99.90;;;;;;4892410;29;20074;-79
2021/07/18 06:28:40;;;;;;;14.15;10.98;;;18.30;99.90;;;;;;4893544;29;20135;-81
2021/07/18 06:31:06;;;;;;;15.90;9.75;;;18.40;99.90;;;;;;4871464;29;20048;-83
2021/07/18 06:33:32;;;;;;;14.18;10.38;;;18.40;99.90;;;;;;4907099;29;20103;-80
2021/07/18 06:35:58;;;;;;;10.95;8.77;;;18.50;99.90;;;;;;4876211;29;20044;-80
2021/07/18 06:38:24;;;;;;;11.00;9.40;;;18.60;99.90;;;;;;4884442;29;20128;-82
2021/07/18 06:40:51;;;;;;;13.50;9.73;;;18.70;99.90;;;;;;4883952;29;20127;-81
2021/07/18 06:43:17;;;;;;;13.18;9.65;;;18.80;99.90;;;;;;4887814;29;20076;-81
2021/07/18 06:45:43;;;;;;;11.10;8.70;;;18.90;99.90;;;;;;4873122;29;20036;-81
2021/07/18 06:48:09;;;;;;;11.50;8.50;;;19.00;99.90;;;;;;4875375;29;20054;-82
2021/07/18 06:50:35;;;;;;;11.98;9.27;;;19.10;99.90;;;;;;4876425;29;20048;-81
2021/07/18 06:53:01;;;;;;;11.98;8.65;;;19.20;99.90;;;;;;4879481;29;20080;-81
2021/07/18 06:55:27;;;;;;;10.90;8.77;;;19.30;99.90;;;;;;4874921;29;20059;-81
2021/07/18 06:57:53;;;;;;;11.75;9.02;;;19.30;99.90;;;;;;4861400;29;20037;-81
2021/07/18 07:00:21;;;;;;;12.50;9.38;;;19.50;99.90;;;;;;4862214;29;20663;-81
2021/07/18 07:02:47;;;;;;;13.23;9.45;;;19.60;99.90;;;;;;4910464;29;20051;-81
2021/07/18 07:05:13;;;;;;;9.95;8.52;;;19.70;99.90;;;;;;4874695;29;20055;-81
2021/07/18 07:07:46;;;;;;;12.68;9.07;;;19.80;99.90;;;;;;4896566;29;20039;-81
2021/07/18 07:10:14;;;;;;;11.55;8.93;;;19.90;99.90;;;;;;4878949;29;20562;-82
2021/07/18 07:12:44;;;;;;;12.10;9.52;;;20.00;99.90;;;;;;4894652;29;20135;-82
2021/07/18 07:15:11;;;;;;;12.35;9.35;;;20.10;99.90;;;;;;4896854;29;20402;-81
2021/07/18 07:17:37;;;;;;;9.68;7.88;;;20.20;99.90;;;;;;4894790;29;20063;-81
2021/07/18 07:20:11;;;;;;;15.38;7.60;;;20.30;99.90;;;;;;4908000;29;20070;-82
2021/07/18 07:22:40;;;;;;;10.88;6.85;;;20.40;99.90;;;;;;4897681;29;20070;-81
2021/07/18 07:25:12;;;;;;;12.63;8.35;;;20.50;99.90;;;;;;4872719;29;20056;-81
2021/07/18 07:27:39;;;;;;;11.00;8.60;;;20.60;99.90;;;;;;4877776;29;20071;-82
2021/07/18 07:30:10;;;;;;;10.70;6.88;;;20.80;99.90;;;;;;4911510;29;20176;-82
2021/07/18 07:32:37;;;;;;;10.85;6.50;;;20.90;99.90;;;;;;4906493;29;20478;-81
2021/07/18 07:35:05;;;;;;;8.82;6.93;;;21.00;99.90;;;;;;4895446;29;20042;-81
2021/07/18 07:37:31;;;;;;;10.32;6.82;;;21.20;99.90;;;;;;4892999;29;20040;-79
2021/07/18 07:39:58;;;;;;;9.90;6.40;;;21.30;99.90;;;;;;4863110;29;20150;-80
2021/07/18 07:42:24;;;;;;;8.85;6.75;;;21.40;99.70;;;;;;4874204;29;20378;-78
2021/07/18 07:44:52;;;;;;;10.48;6.68;;;21.50;99.60;;;;;;4877491;29;20098;-78
2021/07/18 07:47:18;;;;;;;8.85;6.60;;;21.70;99.20;;;;;;4891326;29;20044;-77
2021/07/18 07:49:45;;;;;;;9.43;6.57;;;21.80;98.90;;;;;;4887950;29;20051;-79
2021/07/18 07:52:12;;;;;;;10.20;5.95;;;21.90;98.70;;;;;;4888965;29;20120;-77
2021/07/18 07:54:41;;;;;;;7.45;5.18;;;22.00;98.40;;;;;;4889924;29;20047;-77
2021/07/18 07:57:07;;;;;;;6.38;5.43;;;22.10;98.00;;;;;;4892697;29;20524;-78
2021/07/18 07:59:33;;;;;;;8.02;4.53;;;22.20;97.50;;;;;;4891389;29;20042;-77
2021/07/18 08:02:01;;;;;;;6.25;5.35;;;22.30;97.40;;;;;;4909729;29;20059;-77
2021/07/18 08:04:28;;;;;;;7.35;5.25;;;22.40;97.30;;;;;;4863612;29;20491;-76
2021/07/18 08:07:07;;;;;;;;;;;22.50;97.00;;;;;;4892932;29;20048;-77
2021/07/18 08:09:33;;;;;;;9.38;4.22;;;22.60;97.30;;;;;;4910691;29;20480;-76
2021/07/18 08:12:06;;;;;;;7.82;4.10;;;22.70;96.60;;;;;;4890016;29;20048;-76
2021/07/18 08:14:32;;;;;;;5.78;3.63;;;22.80;96.10;;;;;;4876792;29;20350;-78
2021/07/18 08:17:06;;;;;;;8.45;3.90;;;22.80;95.50;;;;;;4893812;29;20044;-76
2021/07/18 08:19:40;;;;;;;5.20;3.38;;;22.80;95.30;;;;;;4890870;29;20051;-77
2021/07/18 08:22:06;;;;;;;6.95;3.97;;;22.90;95.40;;;;;;4891028;29;20040;-77
2021/07/18 08:24:33;;;;;;;6.40;4.28;;;23.00;95.40;;;;;;4890518;29;20036;-76
2021/07/18 08:26:59;;;;;;;6.15;3.55;;;23.20;95.20;;;;;;4888724;29;21069;-78
2021/07/18 08:29:26;;;;;;;5.93;3.55;;;23.20;94.90;;;;;;4913449;29;20135;-76
2021/07/18 08:31:57;;;;;;;6.20;3.83;;;23.30;95.20;;;;;;4888562;29;20037;-76
2021/07/18 08:34:26;;;;;;;7.00;3.47;;;23.40;94.60;;;;;;4880091;29;20135;-82
2021/07/18 08:36:52;;;;;;;5.95;4.10;;;23.50;94.40;;;;;;4893359;29;20403;-79
2021/07/18 08:39:18;;;;;;;5.85;3.67;;;23.50;94.10;;;;;;4911540;29;20052;-79
2021/07/18 08:41:45;;;;;;;9.65;4.53;;;23.60;94.00;;;;;;4893269;29;20048;-79
2021/07/18 08:44:13;;;;;;;6.93;3.85;;;23.70;93.90;;;;;;4891490;29;20044;-79
2021/07/18 08:46:40;;;;;;;6.50;3.88;;;23.80;93.80;;;;;;4897024;29;20499;-79
2021/07/18 08:49:07;;;;;;;6.38;3.75;;;23.80;93.90;;;;;;4876245;29;20499;-79
2021/07/18 08:51:33;;;;;;;7.82;3.90;;;23.90;93.70;;;;;;4908491;29;20048;-80
2021/07/18 08:54:00;;;;;;;5.40;3.55;;;24.00;93.30;;;;;;4892740;29;20499;-78
2021/07/18 08:56:29;;;;;;;7.45;3.90;;;24.10;92.90;;;;;;4861018;29;20040;-78
2021/07/18 08:58:55;;;;;;;4.88;2.88;;;24.10;92.60;;;;;;4877285;29;20135;-79
2021/07/18 09:01:21;;;;;;;6.97;3.83;;;24.20;92.80;;;;;;4868694;29;20183;-79
2021/07/18 09:03:47;;;;;;;6.97;3.55;;;24.30;92.60;;;;;;4891463;29;20054;-81
2021/07/18 09:06:13;;;;;;;6.85;2.90;;;24.40;92.50;;;;;;4861430;29;20084;-79
2021/07/18 09:08:47;;;;;;;8.05;3.50;;;24.40;92.10;;;;;;4879594;29;20176;-79
2021/07/18 09:11:25;;;;;;;5.88;3.53;;;24.50;91.10;;;;;;4907120;29;20040;-78
2021/07/18 09:14:19;;;;;;;6.53;2.97;;;24.50;90.90;;;;;;4887286;29;20050;-80
2021/07/18 09:16:49;;;;;;;6.30;3.15;;;24.60;92.10;;;;;;4909177;29;20052;-78
2021/07/18 09:19:18;;;;;;;4.68;2.58;;;24.60;91.80;;;;;;4889943;29;20055;-79
2021/07/18 09:22:02;;;;;;;6.32;3.25;;;24.80;92.10;;;;;;4906112;29;20071;-79
2021/07/18 09:24:34;;;;;;;6.88;2.90;;;25.00;91.20;;;;;;4900455;29;20055;-78
2021/07/18 09:27:06;;;;;;;4.32;3.10;;;25.00;90.30;;;;;;4906416;29;20056;-77
2021/07/18 09:29:34;;;;;;;5.15;3.08;;;24.90;88.80;;;;;;4886762;29;20063;-76
2021/07/18 09:32:11;;;;;;;5.55;2.80;;;24.90;89.70;;;;;;4885554;29;20047;-78
2021/07/18 09:34:40;;;;;;;3.95;2.85;;;24.90;88.80;;;;;;4890862;29;20044;-78
2021/07/18 09:37:20;;;;;;;4.95;2.60;;;24.90;90.20;;;;;;4885504;29;20070;-79
2021/07/18 09:39:56;;;;;;;4.10;2.50;;;25.00;90.20;;;;;;4889765;29;20046;-79
2021/07/18 09:42:47;;;;;;;4.57;2.30;;;25.10;89.40;;;;;;4887233;29;20110;-79
2021/07/18 09:45:20;;;;;;;5.30;2.72;;;25.20;89.30;;;;;;4884420;29;20127;-79
2021/07/18 09:47:54;;;;;;;4.18;2.70;;;25.30;89.80;;;;;;4873281;29;20044;-82
2021/07/18 09:50:44;;;;;;;5.82;2.72;;;25.50;89.70;;;;;;4889618;29;20032;-86
2021/07/18 09:53:16;;;;;;;;;;;25.60;88.00;;;;;;4907965;29;20040;-82
2021/07/18 09:56:11;;;;;;;6.50;2.13;;;25.70;89.30;;;;;;4905332;29;19934;-82
2021/07/18 09:58:39;;;;;;;4.30;2.10;;;25.70;88.90;;;;;;4906451;29;20044;-82
2021/07/18 10:01:15;;;;;;;3.75;2.42;;;25.60;89.60;;;;;;4902109;29;20122;-80
2021/07/18 10:03:49;;;;;;;3.70;2.33;;;25.60;88.70;;;;;;4901928;29;20700;-80
2021/07/18 10:06:17;;;;;;;5.38;2.72;;;25.70;86.70;;;;;;4870831;29;20048;-81
2021/07/18 10:08:44;;;;;;;6.15;2.40;;;25.80;86.20;;;;;;4883385;29;20091;-78
2021/07/18 10:11:13;;;;;;;3.28;2.17;;;25.80;86.50;;;;;;4886800;29;20063;-78
2021/07/18 10:13:41;;;;;;;4.70;2.20;;;25.90;89.00;;;;;;4870096;29;20483;-79
2021/07/18 10:16:09;;;;;;;4.82;2.13;;;26.10;87.20;;;;;;4892720;29;20063;-78
2021/07/18 10:18:37;;;;;;;3.83;2.13;;;26.20;86.00;;;;;;4887903;29;20040;-78
2021/07/18 10:21:04;;;;;;;4.55;1.95;;;26.30;84.10;;;;;;4887948;29;20048;-81
2021/07/18 10:23:31;;;;;;;2.90;1.92;;;26.40;86.80;;;;;;4890568;29;20463;-80
2021/07/18 10:25:59;;;;;;;3.30;1.98;;;26.50;85.80;;;;;;4890158;29;20078;-80
2021/07/18 10:28:26;;;;;;;3.78;2.13;;;26.60;84.90;;;;;;4904481;29;20067;-77
2021/07/18 10:30:56;;;;;;;3.35;1.88;;;26.40;83.00;;;;;;4900477;29;20044;-77
2021/07/18 10:33:23;;;;;;;3.90;1.70;;;26.30;83.90;;;;;;4887374;29;20047;-78
2021/07/18 10:35:53;;;;;;;4.07;1.98;;;26.50;85.50;;;;;;4884961;29;20036;-79
2021/07/18 10:38:33;;;;;;;4.03;1.90;;;26.50;85.30;;;;;;4904509;29;20066;-79
2021/07/18 10:40:58;;;;;;;;;;;26.50;85.40;;;;;;4888405;29;20221;-78
2021/07/18 10:43:47;;;;;;;3.38;1.95;;;26.50;85.20;;;;;;4904857;29;19930;-79
2021/07/18 10:46:16;;;;;;;3.95;2.20;;;26.40;82.30;;;;;;4889391;29;20158;-78
2021/07/18 10:48:48;;;;;;;4.65;2.28;;;26.30;80.80;;;;;;4870350;29;20303;-78
2021/07/18 10:51:19;;;;;;;5.82;2.05;;;26.40;84.10;;;;;;4901213;29;20790;-78
2021/07/18 10:53:49;;;;;;;6.15;2.20;;;26.50;84.10;;;;;;4886048;29;20098;-78
2021/07/18 10:56:42;;;;;;;5.05;2.30;;;26.60;81.00;;;;;;4885236;29;20486;-78
2021/07/18 10:59:31;;;;;;;3.88;2.40;;;26.70;79.40;;;;;;4886992;29;20510;-78
2021/07/18 11:02:17;;;;;;;3.40;1.93;;;26.80;76.80;;;;;;4873860;29;20047;-78
2021/07/18 11:04:53;;;;;;;2.67;2.10;;;26.70;77.90;;;;;;4871367;29;20360;-77
2021/07/18 11:07:22;;;;;;;4.85;2.25;;;26.70;77.70;;;;;;4856019;29;20635;-78
2021/07/18 11:09:56;;;;;;;4.63;2.10;;;26.80;79.90;;;;;;4885786;29;20365;-82
2021/07/18 11:12:23;;;;;;;3.80;2.28;;;26.80;78.60;;;;;;4903402;29;20172;-79
2021/07/18 11:14:49;;;;;;;3.35;2.40;;;26.90;82.40;;;;;;4887839;29;20067;-79
2021/07/18 11:17:29;;;;;;;3.97;2.00;;;27.00;79.40;;;;;;4882063;29;20488;-79
2021/07/18 11:19:58;;;;;;;4.03;2.42;;;26.90;80.50;;;;;;4883694;29;20048;-79
2021/07/18 11:23:03;;;;;;;4.95;2.00;;;26.80;78.20;;;;;;4886888;29;20103;-77
2021/07/18 11:25:49;;;;;;;3.97;2.00;;;26.70;77.90;;;;;;4901064;29;20059;-77
2021/07/18 11:31:27;;;;;;;3.05;1.83;;;26.90;77.20;;;;;;4880326;29;20044;-84
2021/07/18 11:34:13;;;;;;;2.65;2.05;;;27.00;79.20;;;;;;4907608;29;20610;-82
2021/07/18 11:36:44;;;;;;;4.70;2.00;;;27.20;81.60;;;;;;4896163;29;20040;-81
2021/07/18 11:39:16;;;;;;;3.75;2.00;;;27.30;81.10;;;;;;4909637;29;20051;-82
2021/07/18 11:41:44;;;;;;;3.00;2.05;;;27.40;80.30;;;;;;4907632;29;20054;-82
2021/07/18 11:44:10;;;;;;;2.75;2.20;;;27.40;74.20;;;;;;4911916;29;20182;-82
2021/07/18 11:46:39;;;;;;;5.97;2.30;;;27.30;71.10;;;;;;4893756;29;20068;-81
2021/07/18 11:49:07;;;;;;;2.95;2.10;;;27.20;75.50;;;;;;4909384;29;20067;-83
2021/07/18 11:51:41;;;;;;;3.50;2.20;;;27.20;77.00;;;;;;4897444;29;20503;-82
2021/07/18 11:54:07;;;;;;;3.55;2.00;;;27.20;77.90;;;;;;4878689;29;20086;-82
2021/07/18 11:56:46;;;;;;;3.97;2.25;;;27.20;79.20;;;;;;4887697;29;20040;-81
2021/07/18 11:59:15;;;;;;;4.45;2.30;;;27.20;80.60;;;;;;4883569;29;20032;-82
2021/07/18 12:01:44;;;;;;;4.10;2.28;;;27.20;72.70;;;;;;4889844;29;20040;-79
2021/07/18 12:04:27;;;;;;;3.65;2.08;;;27.10;74.30;;;;;;4892779;29;20052;-79
2021/07/18 12:06:57;;;;;;;2.63;2.05;;;27.00;79.90;;;;;;4874403;29;20048;-78
2021/07/18 12:09:28;;;;;;;4.47;2.20;;;27.00;78.60;;;;;;4907995;29;20535;-79
2021/07/18 12:11:57;;;;;;;4.65;2.15;;;27.10;77.10;;;;;;4898787;29;20044;-80
2021/07/18 12:14:23;;;;;;;2.67;2.05;;;27.10;74.40;;;;;;4886487;29;20136;-79
2021/07/18 12:16:54;;;;;;;4.20;2.30;;;27.00;76.70;;;;;;4882552;29;20463;-78
2021/07/18 12:19:27;;;;;;;3.22;2.20;;;27.20;78.80;;;;;;4885774;29;20825;-80
2021/07/18 12:21:55;;;;;;;4.88;2.63;;;27.30;76.40;;;;;;4914622;29;20380;-80
2021/07/18 12:24:29;;;;;;;6.38;2.47;;;27.40;79.20;;;;;;4890400;29;20135;-78
2021/07/18 12:26:58;;;;;;;5.63;2.40;;;27.40;76.60;;;;;;4896355;29;20047;-79
2021/07/18 12:29:26;;;;;;;3.45;2.25;;;27.30;76.80;;;;;;4884927;29;20055;-78
2021/07/18 12:31:52;;;;;;;3.45;2.25;;;27.20;77.40;;;;;;4876975;29;20496;-79
2021/07/18 12:34:24;;;;;;;5.90;2.10;;;27.20;76.80;;;;;;4886838;29;20256;-78
2021/07/18 12:36:57;;;;;;;5.10;2.47;;;27.10;73.30;;;;;;4906545;29;20044;-78
2021/07/18 12:39:27;;;;;;;6.47;2.30;;;27.00;74.00;;;;;;4870756;29;20056;-78
2021/07/18 12:41:53;;;;;;;;;;;26.80;76.40;;;;;;4875111;29;20052;-79
2021/07/18 12:44:21;;;;;;;5.53;2.47;;;26.70;77.40;;;;;;4895224;29;19923;-80
2021/07/18 12:46:48;;;;;;;4.35;2.10;;;26.80;78.00;;;;;;4907793;29;20123;-83
2021/07/18 12:49:15;;;;;;;4.50;2.28;;;26.80;77.00;;;;;;4882999;29;20040;-80